sensor_id;sensor_type;location;lat;lon;timestamp;temperature;humidity
26081;DHT22;13991;51.174;4.438;2022-07-11T00:00:03;20.50;99.90
26081;DHT22;13991;51.174;4.438;2022-07-11T00:02:29;20.50;99.90
26081;DHT22;13991;51.174;4.438;2022-07-11T00:04:55;20.50;99.90
26081;DHT22;13991;51.174;4.438;2022-07-11T00:07:20;20.40;99.90
26081;DHT22;13991;51.174;4.438;2022-07-11T00:09:46;20.40;99.90
26081;DHT22;13991;51.174;4.438;2022-07-11T00:12:12;20.40;99.90
26081;DHT22;13991;51.174;4.438;2022-07-11T00:14:39;20.40;99.90
26081;DHT22;13991;51.174;4.438;2022-07-11T00:17:06;20.40;99.90
26081;DHT22;13991;51.174;4.438;2022-07-11T00:19:32;20.30;99.90
26081;DHT22;13991;51.174;4.438;2022-07-11T00:21:58;20.20;99.90
26081;DHT22;13991;51.174;4.438;2022-07-11T00:24:24;20.10;99.90
26081;DHT22;13991;51.174;4.438;2022-07-11T00:26:51;20.00;99.90
26081;DHT22;13991;51.174;4.438;2022-07-11T00:29:16;20.00;99.90
26081;DHT22;13991;51.174;4.438;2022-07-11T00:31:42;20.00;99.90
26081;DHT22;13991;51.174;4.438;2022-07-11T00:34:08;20.00;99.90
26081;DHT22;13991;51.174;4.438;2022-07-11T00:36:34;20.10;99.90
26081;DHT22;13991;51.174;4.438;2022-07-11T00:39:00;20.00;99.90
26081;DHT22;13991;51.174;4.438;2022-07-11T00:41:25;19.90;99.90
26081;DHT22;13991;51.174;4.438;2022-07-11T00:43:54;19.90;99.90
26081;DHT22;13991;51.174;4.438;2022-07-11T00:46:22;19.90;99.90
26081;DHT22;13991;51.174;4.438;2022-07-11T00:48:48;20.00;99.90
26081;DHT22;13991;51.174;4.438;2022-07-11T00:51:14;20.00;99.90
26081;DHT22;13991;51.174;4.438;2022-07-11T00:53:41;20.00;99.90
26081;DHT22;13991;51.174;4.438;2022-07-11T00:56:08;20.00;99.90
26081;DHT22;13991;51.174;4.438;2022-07-11T00:58:35;20.00;99.90
26081;DHT22;13991;51.174;4.438;2022-07-11T01:01:02;19.90;99.90
26081;DHT22;13991;51.174;4.438;2022-07-11T01:03:27;19.70;99.90
26081;DHT22;13991;51.174;4.438;2022-07-11T01:05:53;19.60;99.90
26081;DHT22;13991;51.174;4.438;2022-07-11T01:08:19;19.60;99.90
26081;DHT22;13991;51.174;4.438;2022-07-11T01:10:45;19.60;99.90
26081;DHT22;13991;51.174;4.438;2022-07-11T01:13:11;19.70;99.90
26081;DHT22;13991;51.174;4.438;2022-07-11T01:15:37;19.60;99.90
26081;DHT22;13991;51.174;4.438;2022-07-11T01:18:03;19.50;99.90
26081;DHT22;13991;51.174;4.438;2022-07-11T01:20:29;19.50;99.90
26081;DHT22;13991;51.174;4.438;2022-07-11T01:23:08;19.50;99.90
26081;DHT22;13991;51.174;4.438;2022-07-11T01:25:34;19.60;99.90
26081;DHT22;13991;51.174;4.438;2022-07-11T01:28:05;19.50;99.90
26081;DHT22;13991;51.174;4.438;2022-07-11T01:30:35;19.40;99.90
26081;DHT22;13991;51.174;4.438;2022-07-11T01:33:01;19.40;99.90
26081;DHT22;13991;51.174;4.438;2022-07-11T01:35:28;19.40;99.90
26081;DHT22;13991;51.174;4.438;2022-07-11T01:37:54;19.30;99.90
26081;DHT22;13991;51.174;4.438;2022-07-11T01:40:20;19.30;99.90
26081;DHT22;13991;51.174;4.438;2022-07-11T01:42:46;19.20;99.90
26081;DHT22;13991;51.174;4.438;2022-07-11T01:45:12;19.30;99.90
26081;DHT22;13991;51.174;4.438;2022-07-11T01:47:39;19.20;99.90
26081;DHT22;13991;51.174;4.438;2022-07-11T01:50:05;19.20;99.90
26081;DHT22;13991;51.174;4.438;2022-07-11T01:52:31;19.20;99.90
26081;DHT22;13991;51.174;4.438;2022-07-11T01:54:57;19.20;99.90
26081;DHT22;13991;51.174;4.438;2022-07-11T01:57:23;19.20;99.90
26081;DHT22;13991;51.174;4.438;2022-07-11T01:59:48;19.20;99.90
26081;DHT22;13991;51.174;4.438;2022-07-11T02:02:14;19.20;99.90
26081;DHT22;13991;51.174;4.438;2022-07-11T02:04:41;19.20;99.90
26081;DHT22;13991;51.174;4.438;2022-07-11T02:07:06;19.20;99.90
26081;DHT22;13991;51.174;4.438;2022-07-11T02:09:32;19.10;99.90
26081;DHT22;13991;51.174;4.438;2022-07-11T02:11:59;19.00;99.90
26081;DHT22;13991;51.174;4.438;2022-07-11T02:14:25;19.00;99.90
26081;DHT22;13991;51.174;4.438;2022-07-11T02:16:51;19.10;99.90
26081;DHT22;13991;51.174;4.438;2022-07-11T02:19:17;19.20;99.90
26081;DHT22;13991;51.174;4.438;2022-07-11T02:21:42;19.10;99.90
26081;DHT22;13991;51.174;4.438;2022-07-11T02:24:08;19.10;99.90
26081;DHT22;13991;51.174;4.438;2022-07-11T02:26:35;19.10;99.90
26081;DHT22;13991;51.174;4.438;2022-07-11T02:29:01;19.20;99.90
26081;DHT22;13991;51.174;4.438;2022-07-11T02:31:27;19.10;99.90
26081;DHT22;13991;51.174;4.438;2022-07-11T02:33:52;19.00;99.90
26081;DHT22;13991;51.174;4.438;2022-07-11T02:36:18;19.10;99.90
26081;DHT22;13991;51.174;4.438;2022-07-11T02:38:44;19.10;99.90
26081;DHT22;13991;51.174;4.438;2022-07-11T02:41:10;19.10;99.90
26081;DHT22;13991;51.174;4.438;2022-07-11T02:43:35;19.10;99.90
26081;DHT22;13991;51.174;4.438;2022-07-11T02:46:01;19.10;99.90
26081;DHT22;13991;51.174;4.438;2022-07-11T02:48:27;19.10;99.90
26081;DHT22;13991;51.174;4.438;2022-07-11T02:50:53;19.00;99.90
26081;DHT22;13991;51.174;4.438;2022-07-11T02:53:19;19.00;99.90
26081;DHT22;13991;51.174;4.438;2022-07-11T02:55:45;19.00;99.90
26081;DHT22;13991;51.174;4.438;2022-07-11T02:58:11;18.90;99.90
26081;DHT22;13991;51.174;4.438;2022-07-11T03:00:36;18.90;99.90
26081;DHT22;13991;51.174;4.438;2022-07-11T03:03:02;19.00;99.90
26081;DHT22;13991;51.174;4.438;2022-07-11T03:05:28;19.10;99.90
26081;DHT22;13991;51.174;4.438;2022-07-11T03:07:54;19.20;99.90
26081;DHT22;13991;51.174;4.438;2022-07-11T03:10:20;19.20;99.90
26081;DHT22;13991;51.174;4.438;2022-07-11T03:12:48;19.30;99.90
26081;DHT22;13991;51.174;4.438;2022-07-11T03:15:14;19.20;99.90
26081;DHT22;13991;51.174;4.438;2022-07-11T03:17:40;19.20;99.90
26081;DHT22;13991;51.174;4.438;2022-07-11T03:20:07;18.90;99.90
26081;DHT22;13991;51.174;4.438;2022-07-11T03:22:33;18.80;99.90
26081;DHT22;13991;51.174;4.438;2022-07-11T03:24:58;18.70;99.90
26081;DHT22;13991;51.174;4.438;2022-07-11T03:27:26;18.80;99.90
26081;DHT22;13991;51.174;4.438;2022-07-11T03:29:51;18.80;99.90
26081;DHT22;13991;51.174;4.438;2022-07-11T03:32:17;18.80;99.90
26081;DHT22;13991;51.174;4.438;2022-07-11T03:34:46;18.90;99.90
26081;DHT22;13991;51.174;4.438;2022-07-11T03:37:32;18.90;99.90
26081;DHT22;13991;51.174;4.438;2022-07-11T03:39:57;18.90;99.90
26081;DHT22;13991;51.174;4.438;2022-07-11T03:42:24;19.10;99.90
26081;DHT22;13991;51.174;4.438;2022-07-11T03:44:49;19.00;99.90
26081;DHT22;13991;51.174;4.438;2022-07-11T03:47:17;19.00;99.90
26081;DHT22;13991;51.174;4.438;2022-07-11T03:49:42;19.00;99.90
26081;DHT22;13991;51.174;4.438;2022-07-11T03:52:08;19.10;99.90
26081;DHT22;13991;51.174;4.438;2022-07-11T03:54:34;19.10;99.90
26081;DHT22;13991;51.174;4.438;2022-07-11T03:56:59;19.10;99.90
26081;DHT22;13991;51.174;4.438;2022-07-11T03:59:25;19.10;99.90
26081;DHT22;13991;51.174;4.438;2022-07-11T04:01:50;19.10;99.90
26081;DHT22;13991;51.174;4.438;2022-07-11T04:04:16;19.00;99.90
26081;DHT22;13991;51.174;4.438;2022-07-11T04:06:42;18.90;99.90
26081;DHT22;13991;51.174;4.438;2022-07-11T04:09:09;19.00;99.90
26081;DHT22;13991;51.174;4.438;2022-07-11T04:11:36;19.00;99.90
26081;DHT22;13991;51.174;4.438;2022-07-11T04:14:02;19.00;99.90
26081;DHT22;13991;51.174;4.438;2022-07-11T04:16:27;19.00;99.90
26081;DHT22;13991;51.174;4.438;2022-07-11T04:18:53;18.90;99.90
26081;DHT22;13991;51.174;4.438;2022-07-11T04:21:18;18.90;99.90
26081;DHT22;13991;51.174;4.438;2022-07-11T04:23:44;18.90;99.90
26081;DHT22;13991;51.174;4.438;2022-07-11T04:26:10;19.00;99.90
26081;DHT22;13991;51.174;4.438;2022-07-11T04:28:36;19.00;99.90
26081;DHT22;13991;51.174;4.438;2022-07-11T04:31:01;19.00;99.90
26081;DHT22;13991;51.174;4.438;2022-07-11T04:33:28;19.00;99.90
26081;DHT22;13991;51.174;4.438;2022-07-11T04:35:54;18.70;99.90
26081;DHT22;13991;51.174;4.438;2022-07-11T04:38:20;18.80;99.90
26081;DHT22;13991;51.174;4.438;2022-07-11T04:40:49;18.80;99.90
26081;DHT22;13991;51.174;4.438;2022-07-11T04:43:15;18.90;99.90
26081;DHT22;13991;51.174;4.438;2022-07-11T04:45:41;18.70;99.90
26081;DHT22;13991;51.174;4.438;2022-07-11T04:48:06;18.60;99.90
26081;DHT22;13991;51.174;4.438;2022-07-11T04:50:32;18.40;99.90
26081;DHT22;13991;51.174;4.438;2022-07-11T04:52:58;18.70;99.90
26081;DHT22;13991;51.174;4.438;2022-07-11T04:55:23;18.80;99.90
26081;DHT22;13991;51.174;4.438;2022-07-11T04:57:49;18.90;99.90
26081;DHT22;13991;51.174;4.438;2022-07-11T05:00:15;18.90;99.90
26081;DHT22;13991;51.174;4.438;2022-07-11T05:02:40;18.90;99.90
26081;DHT22;13991;51.174;4.438;2022-07-11T05:05:06;19.00;99.90
26081;DHT22;13991;51.174;4.438;2022-07-11T05:07:32;19.10;99.90
26081;DHT22;13991;51.174;4.438;2022-07-11T05:09:58;19.10;99.90
26081;DHT22;13991;51.174;4.438;2022-07-11T05:12:23;19.10;99.90
26081;DHT22;13991;51.174;4.438;2022-07-11T05:14:49;19.10;99.90
26081;DHT22;13991;51.174;4.438;2022-07-11T05:17:15;19.10;99.90
26081;DHT22;13991;51.174;4.438;2022-07-11T05:19:40;19.10;99.90
26081;DHT22;13991;51.174;4.438;2022-07-11T05:22:06;19.00;99.90
26081;DHT22;13991;51.174;4.438;2022-07-11T05:24:32;19.00;99.90
26081;DHT22;13991;51.174;4.438;2022-07-11T05:26:57;18.90;99.90
26081;DHT22;13991;51.174;4.438;2022-07-11T05:29:23;19.10;99.90
26081;DHT22;13991;51.174;4.438;2022-07-11T05:31:48;19.10;99.90
26081;DHT22;13991;51.174;4.438;2022-07-11T05:34:18;19.20;99.90
26081;DHT22;13991;51.174;4.438;2022-07-11T05:36:44;19.40;99.90
26081;DHT22;13991;51.174;4.438;2022-07-11T05:39:09;19.40;99.90
26081;DHT22;13991;51.174;4.438;2022-07-11T05:41:35;19.30;99.90
26081;DHT22;13991;51.174;4.438;2022-07-11T05:44:01;19.30;99.90
26081;DHT22;13991;51.174;4.438;2022-07-11T05:46:27;19.50;99.90
26081;DHT22;13991;51.174;4.438;2022-07-11T05:48:52;19.70;99.90
26081;DHT22;13991;51.174;4.438;2022-07-11T05:51:18;19.70;99.90
26081;DHT22;13991;51.174;4.438;2022-07-11T05:53:44;19.60;99.90
26081;DHT22;13991;51.174;4.438;2022-07-11T05:56:10;19.60;99.90
26081;DHT22;13991;51.174;4.438;2022-07-11T05:58:36;19.30;99.90
26081;DHT22;13991;51.174;4.438;2022-07-11T06:01:01;19.40;99.90
26081;DHT22;13991;51.174;4.438;2022-07-11T06:03:27;19.60;99.90
26081;DHT22;13991;51.174;4.438;2022-07-11T06:05:52;19.70;99.90
26081;DHT22;13991;51.174;4.438;2022-07-11T06:08:18;19.80;99.90
26081;DHT22;13991;51.174;4.438;2022-07-11T06:11:02;19.90;99.90
26081;DHT22;13991;51.174;4.438;2022-07-11T06:13:28;20.00;99.90
26081;DHT22;13991;51.174;4.438;2022-07-11T06:15:55;20.10;99.90
26081;DHT22;13991;51.174;4.438;2022-07-11T06:18:21;20.00;99.90
26081;DHT22;13991;51.174;4.438;2022-07-11T06:20:47;19.90;99.90
26081;DHT22;13991;51.174;4.438;2022-07-11T06:23:12;20.00;99.90
26081;DHT22;13991;51.174;4.438;2022-07-11T06:25:38;20.10;99.90
26081;DHT22;13991;51.174;4.438;2022-07-11T06:28:04;20.10;99.90
26081;DHT22;13991;51.174;4.438;2022-07-11T06:30:30;20.20;99.90
26081;DHT22;13991;51.174;4.438;2022-07-11T06:32:57;20.20;99.90
26081;DHT22;13991;51.174;4.438;2022-07-11T06:35:23;19.80;99.90
26081;DHT22;13991;51.174;4.438;2022-07-11T06:37:49;19.70;99.90
26081;DHT22;13991;51.174;4.438;2022-07-11T06:40:15;19.60;99.90
26081;DHT22;13991;51.174;4.438;2022-07-11T06:42:43;19.50;99.90
26081;DHT22;13991;51.174;4.438;2022-07-11T06:45:09;19.30;99.90
26081;DHT22;13991;51.174;4.438;2022-07-11T06:47:35;19.30;99.90
26081;DHT22;13991;51.174;4.438;2022-07-11T06:50:01;19.40;99.90
26081;DHT22;13991;51.174;4.438;2022-07-11T06:52:27;19.50;99.90
26081;DHT22;13991;51.174;4.438;2022-07-11T06:54:53;19.80;99.90
26081;DHT22;13991;51.174;4.438;2022-07-11T06:57:19;19.80;99.90
26081;DHT22;13991;51.174;4.438;2022-07-11T06:59:44;19.90;99.90
26081;DHT22;13991;51.174;4.438;2022-07-11T07:02:10;20.10;99.90
26081;DHT22;13991;51.174;4.438;2022-07-11T07:04:36;20.00;99.90
26081;DHT22;13991;51.174;4.438;2022-07-11T07:07:02;20.00;99.90
26081;DHT22;13991;51.174;4.438;2022-07-11T07:09:28;20.10;99.90
26081;DHT22;13991;51.174;4.438;2022-07-11T07:11:54;20.00;99.90
26081;DHT22;13991;51.174;4.438;2022-07-11T07:14:21;20.00;99.90
26081;DHT22;13991;51.174;4.438;2022-07-11T07:16:47;20.00;99.90
26081;DHT22;13991;51.174;4.438;2022-07-11T07:19:13;20.20;99.90
26081;DHT22;13991;51.174;4.438;2022-07-11T07:21:39;20.20;99.90
26081;DHT22;13991;51.174;4.438;2022-07-11T07:24:04;20.20;99.90
26081;DHT22;13991;51.174;4.438;2022-07-11T07:26:32;20.20;99.90
26081;DHT22;13991;51.174;4.438;2022-07-11T07:28:58;20.20;99.90
26081;DHT22;13991;51.174;4.438;2022-07-11T07:31:23;20.30;99.90
26081;DHT22;13991;51.174;4.438;2022-07-11T07:33:49;20.40;99.90
26081;DHT22;13991;51.174;4.438;2022-07-11T07:36:15;20.30;99.90
26081;DHT22;13991;51.174;4.438;2022-07-11T07:38:42;20.30;99.90
26081;DHT22;13991;51.174;4.438;2022-07-11T07:41:10;20.20;99.90
26081;DHT22;13991;51.174;4.438;2022-07-11T07:43:36;20.30;99.90
26081;DHT22;13991;51.174;4.438;2022-07-11T07:46:01;20.40;99.90
26081;DHT22;13991;51.174;4.438;2022-07-11T07:48:27;20.60;99.90
26081;DHT22;13991;51.174;4.438;2022-07-11T07:50:53;20.70;99.90
26081;DHT22;13991;51.174;4.438;2022-07-11T07:53:19;20.70;99.90
26081;DHT22;13991;51.174;4.438;2022-07-11T07:55:44;20.70;99.90
26081;DHT22;13991;51.174;4.438;2022-07-11T07:58:10;20.70;99.90
26081;DHT22;13991;51.174;4.438;2022-07-11T08:00:36;20.70;99.90
26081;DHT22;13991;51.174;4.438;2022-07-11T08:03:20;20.70;99.90
26081;DHT22;13991;51.174;4.438;2022-07-11T08:05:45;20.80;99.90
26081;DHT22;13991;51.174;4.438;2022-07-11T08:08:11;21.00;99.90
26081;DHT22;13991;51.174;4.438;2022-07-11T08:10:36;21.00;99.90
26081;DHT22;13991;51.174;4.438;2022-07-11T08:13:03;21.20;99.90
26081;DHT22;13991;51.174;4.438;2022-07-11T08:15:28;21.20;99.90
26081;DHT22;13991;51.174;4.438;2022-07-11T08:17:54;21.10;99.90
26081;DHT22;13991;51.174;4.438;2022-07-11T08:20:20;21.10;99.90
26081;DHT22;13991;51.174;4.438;2022-07-11T08:22:45;21.00;99.90
26081;DHT22;13991;51.174;4.438;2022-07-11T08:25:11;21.10;99.90
26081;DHT22;13991;51.174;4.438;2022-07-11T08:27:36;21.30;99.90
26081;DHT22;13991;51.174;4.438;2022-07-11T08:30:05;21.40;99.90
26081;DHT22;13991;51.174;4.438;2022-07-11T08:32:31;21.30;99.90
26081;DHT22;13991;51.174;4.438;2022-07-11T08:34:56;21.30;99.90
26081;DHT22;13991;51.174;4.438;2022-07-11T08:37:22;21.40;99.90
26081;DHT22;13991;51.174;4.438;2022-07-11T08:39:48;21.40;99.90
26081;DHT22;13991;51.174;4.438;2022-07-11T08:42:20;21.20;99.90
26081;DHT22;13991;51.174;4.438;2022-07-11T08:44:48;21.10;99.90
26081;DHT22;13991;51.174;4.438;2022-07-11T08:47:14;20.80;99.90
26081;DHT22;13991;51.174;4.438;2022-07-11T08:49:40;21.00;99.90
26081;DHT22;13991;51.174;4.438;2022-07-11T08:52:07;21.10;99.90
26081;DHT22;13991;51.174;4.438;2022-07-11T08:54:33;21.20;99.90
26081;DHT22;13991;51.174;4.438;2022-07-11T08:57:00;21.30;99.90
26081;DHT22;13991;51.174;4.438;2022-07-11T08:59:27;21.30;99.90
26081;DHT22;13991;51.174;4.438;2022-07-11T09:01:58;21.30;99.90
26081;DHT22;13991;51.174;4.438;2022-07-11T09:04:25;21.50;99.90
26081;DHT22;13991;51.174;4.438;2022-07-11T09:06:51;21.60;99.90
26081;DHT22;13991;51.174;4.438;2022-07-11T09:09:17;21.50;99.90
26081;DHT22;13991;51.174;4.438;2022-07-11T09:11:53;21.70;99.90
26081;DHT22;13991;51.174;4.438;2022-07-11T09:14:27;21.80;99.90
26081;DHT22;13991;51.174;4.438;2022-07-11T09:17:01;22.00;99.90
26081;DHT22;13991;51.174;4.438;2022-07-11T09:19:32;22.00;99.90
26081;DHT22;13991;51.174;4.438;2022-07-11T09:22:10;22.20;99.90
26081;DHT22;13991;51.174;4.438;2022-07-11T09:25:02;22.40;99.90
26081;DHT22;13991;51.174;4.438;2022-07-11T09:28:00;22.30;99.90
26081;DHT22;13991;51.174;4.438;2022-07-11T09:30:44;22.10;99.90
26081;DHT22;13991;51.174;4.438;2022-07-11T09:33:12;22.10;99.90
26081;DHT22;13991;51.174;4.438;2022-07-11T09:35:43;22.20;99.90
26081;DHT22;13991;51.174;4.438;2022-07-11T09:38:12;22.30;99.90
26081;DHT22;13991;51.174;4.438;2022-07-11T09:40:42;22.40;99.90
26081;DHT22;13991;51.174;4.438;2022-07-11T09:43:08;22.30;99.90
26081;DHT22;13991;51.174;4.438;2022-07-11T09:45:34;22.30;99.90
26081;DHT22;13991;51.174;4.438;2022-07-11T09:48:10;22.20;99.90
26081;DHT22;13991;51.174;4.438;2022-07-11T09:50:37;22.30;99.90
26081;DHT22;13991;51.174;4.438;2022-07-11T09:53:09;22.50;99.90
26081;DHT22;13991;51.174;4.438;2022-07-11T09:55:44;22.60;99.90
26081;DHT22;13991;51.174;4.438;2022-07-11T09:58:12;22.50;99.90
26081;DHT22;13991;51.174;4.438;2022-07-11T10:00:39;22.60;99.90
26081;DHT22;13991;51.174;4.438;2022-07-11T10:03:06;22.70;99.90
26081;DHT22;13991;51.174;4.438;2022-07-11T10:05:33;23.00;99.90
26081;DHT22;13991;51.174;4.438;2022-07-11T10:08:00;23.40;99.90
26081;DHT22;13991;51.174;4.438;2022-07-11T10:10:27;23.60;99.90
26081;DHT22;13991;51.174;4.438;2022-07-11T10:12:54;23.60;99.90
26081;DHT22;13991;51.174;4.438;2022-07-11T10:15:23;22.90;99.90
26081;DHT22;13991;51.174;4.438;2022-07-11T10:18:00;23.20;99.90
26081;DHT22;13991;51.174;4.438;2022-07-11T10:23:47;23.60;99.90
26081;DHT22;13991;51.174;4.438;2022-07-11T10:28:46;23.70;99.90
26081;DHT22;13991;51.174;4.438;2022-07-11T10:31:20;23.50;99.90
26081;DHT22;13991;51.174;4.438;2022-07-11T10:34:05;23.70;99.90
26081;DHT22;13991;51.174;4.438;2022-07-11T10:36:33;23.80;99.90
26081;DHT22;13991;51.174;4.438;2022-07-11T10:39:20;23.80;99.90
26081;DHT22;13991;51.174;4.438;2022-07-11T10:41:54;24.00;99.90
26081;DHT22;13991;51.174;4.438;2022-07-11T10:44:21;24.20;99.90
26081;DHT22;13991;51.174;4.438;2022-07-11T10:46:46;23.90;99.90
26081;DHT22;13991;51.174;4.438;2022-07-11T10:57:22;23.80;99.90
26081;DHT22;13991;51.174;4.438;2022-07-11T11:02:24;24.30;99.90
26081;DHT22;13991;51.174;4.438;2022-07-11T11:07:47;24.40;99.90
26081;DHT22;13991;51.174;4.438;2022-07-11T11:18:36;24.40;99.90
26081;DHT22;13991;51.174;4.438;2022-07-11T11:23:35;24.70;99.90
26081;DHT22;13991;51.174;4.438;2022-07-11T11:28:30;24.70;99.90
26081;DHT22;13991;51.174;4.438;2022-07-11T11:30:57;24.90;99.90
26081;DHT22;13991;51.174;4.438;2022-07-11T11:33:29;24.50;99.90
26081;DHT22;13991;51.174;4.438;2022-07-11T11:36:08;24.50;99.90
26081;DHT22;13991;51.174;4.438;2022-07-11T11:38:40;24.90;99.90
26081;DHT22;13991;51.174;4.438;2022-07-11T11:41:06;25.10;99.90
26081;DHT22;13991;51.174;4.438;2022-07-11T11:43:33;25.20;99.90
26081;DHT22;13991;51.174;4.438;2022-07-11T11:45:58;25.30;99.90
26081;DHT22;13991;51.174;4.438;2022-07-11T11:48:32;25.10;99.90
26081;DHT22;13991;51.174;4.438;2022-07-11T11:51:09;25.10;99.90
26081;DHT22;13991;51.174;4.438;2022-07-11T11:53:37;25.10;99.90
26081;DHT22;13991;51.174;4.438;2022-07-11T11:56:22;25.20;99.90
26081;DHT22;13991;51.174;4.438;2022-07-11T11:58:49;25.30;99.90
26081;DHT22;13991;51.174;4.438;2022-07-11T12:01:20;25.40;99.90
26081;DHT22;13991;51.174;4.438;2022-07-11T12:06:13;25.40;99.90
26081;DHT22;13991;51.174;4.438;2022-07-11T12:08:39;25.40;99.90
26081;DHT22;13991;51.174;4.438;2022-07-11T12:11:05;25.50;99.90
26081;DHT22;13991;51.174;4.438;2022-07-11T12:13:31;25.50;99.90
26081;DHT22;13991;51.174;4.438;2022-07-11T12:15:56;25.80;99.90
26081;DHT22;13991;51.174;4.438;2022-07-11T12:18:40;25.90;99.90
26081;DHT22;13991;51.174;4.438;2022-07-11T12:21:10;26.00;99.90
26081;DHT22;13991;51.174;4.438;2022-07-11T12:23:36;26.10;99.90
26081;DHT22;13991;51.174;4.438;2022-07-11T12:26:02;26.30;99.90
26081;DHT22;13991;51.174;4.438;2022-07-11T12:28:28;25.90;99.90
26081;DHT22;13991;51.174;4.438;2022-07-11T12:30:57;25.90;99.90
26081;DHT22;13991;51.174;4.438;2022-07-11T12:33:23;26.20;99.90
26081;DHT22;13991;51.174;4.438;2022-07-11T12:35:59;26.60;99.90
26081;DHT22;13991;51.174;4.438;2022-07-11T12:38:25;26.10;99.90
26081;DHT22;13991;51.174;4.438;2022-07-11T12:40:59;26.20;99.90
26081;DHT22;13991;51.174;4.438;2022-07-11T12:43:44;26.50;99.90
26081;DHT22;13991;51.174;4.438;2022-07-11T12:46:31;26.70;99.90
26081;DHT22;13991;51.174;4.438;2022-07-11T12:49:00;27.00;99.90
26081;DHT22;13991;51.174;4.438;2022-07-11T12:51:27;27.10;99.90
26081;DHT22;13991;51.174;4.438;2022-07-11T12:54:06;27.10;99.90
26081;DHT22;13991;51.174;4.438;2022-07-11T12:56:34;27.00;99.90
26081;DHT22;13991;51.174;4.438;2022-07-11T12:59:00;26.60;99.90
26081;DHT22;13991;51.174;4.438;2022-07-11T13:01:28;26.70;99.90
26081;DHT22;13991;51.174;4.438;2022-07-11T13:03:54;26.80;99.90
26081;DHT22;13991;51.174;4.438;2022-07-11T13:06:20;26.80;99.90
26081;DHT22;13991;51.174;4.438;2022-07-11T13:09:06;26.70;99.90
26081;DHT22;13991;51.174;4.438;2022-07-11T13:11:31;26.80;99.90
26081;DHT22;13991;51.174;4.438;2022-07-11T13:13:58;26.70;99.90
26081;DHT22;13991;51.174;4.438;2022-07-11T13:16:24;26.70;99.90
26081;DHT22;13991;51.174;4.438;2022-07-11T13:18:49;26.40;99.90
26081;DHT22;13991;51.174;4.438;2022-07-11T13:21:16;26.40;99.90
26081;DHT22;13991;51.174;4.438;2022-07-11T13:23:42;26.90;99.90
26081;DHT22;13991;51.174;4.438;2022-07-11T13:26:09;27.30;99.80
26081;DHT22;13991;51.174;4.438;2022-07-11T13:28:36;27.10;98.80
26081;DHT22;13991;51.174;4.438;2022-07-11T13:31:02;27.10;99.70
26081;DHT22;13991;51.174;4.438;2022-07-11T13:33:31;27.10;99.70
26081;DHT22;13991;51.174;4.438;2022-07-11T13:35:58;27.00;99.90
26081;DHT22;13991;51.174;4.438;2022-07-11T13:38:24;27.20;99.80
26081;DHT22;13991;51.174;4.438;2022-07-11T13:40:50;27.20;99.50
26081;DHT22;13991;51.174;4.438;2022-07-11T13:43:16;27.20;99.40
26081;DHT22;13991;51.174;4.438;2022-07-11T13:45:42;27.40;98.60
26081;DHT22;13991;51.174;4.438;2022-07-11T13:48:10;27.40;97.90
26081;DHT22;13991;51.174;4.438;2022-07-11T13:50:35;27.40;98.20
26081;DHT22;13991;51.174;4.438;2022-07-11T13:53:01;27.50;98.10
26081;DHT22;13991;51.174;4.438;2022-07-11T13:55:27;27.50;97.20
26081;DHT22;13991;51.174;4.438;2022-07-11T13:57:58;27.80;96.60
26081;DHT22;13991;51.174;4.438;2022-07-11T14:00:26;28.10;95.80
26081;DHT22;13991;51.174;4.438;2022-07-11T14:02:53;28.20;95.20
26081;DHT22;13991;51.174;4.438;2022-07-11T14:05:19;27.90;94.80
26081;DHT22;13991;51.174;4.438;2022-07-11T14:07:48;27.90;94.00
26081;DHT22;13991;51.174;4.438;2022-07-11T14:10:14;28.20;92.90
26081;DHT22;13991;51.174;4.438;2022-07-11T14:12:40;28.50;92.70
26081;DHT22;13991;51.174;4.438;2022-07-11T14:15:06;28.60;92.00
26081;DHT22;13991;51.174;4.438;2022-07-11T14:17:34;28.80;91.70
26081;DHT22;13991;51.174;4.438;2022-07-11T14:19:59;28.80;92.00
26081;DHT22;13991;51.174;4.438;2022-07-11T14:22:25;28.80;92.50
26081;DHT22;13991;51.174;4.438;2022-07-11T14:24:51;28.90;91.80
26081;DHT22;13991;51.174;4.438;2022-07-11T14:27:17;28.90;91.70
26081;DHT22;13991;51.174;4.438;2022-07-11T14:29:43;28.80;91.60
26081;DHT22;13991;51.174;4.438;2022-07-11T14:32:13;28.50;92.00
26081;DHT22;13991;51.174;4.438;2022-07-11T14:34:39;28.50;92.30
26081;DHT22;13991;51.174;4.438;2022-07-11T14:37:04;28.50;91.50
26081;DHT22;13991;51.174;4.438;2022-07-11T14:39:31;28.30;91.40
26081;DHT22;13991;51.174;4.438;2022-07-11T14:41:57;28.30;92.40
26081;DHT22;13991;51.174;4.438;2022-07-11T14:44:25;28.50;91.20
26081;DHT22;13991;51.174;4.438;2022-07-11T14:46:52;28.80;88.50
26081;DHT22;13991;51.174;4.438;2022-07-11T14:49:17;28.80;87.30
26081;DHT22;13991;51.174;4.438;2022-07-11T14:51:43;29.00;86.60
26081;DHT22;13991;51.174;4.438;2022-07-11T14:54:09;29.10;85.30
26081;DHT22;13991;51.174;4.438;2022-07-11T14:56:36;29.20;84.80
26081;DHT22;13991;51.174;4.438;2022-07-11T14:59:03;29.40;83.10
26081;DHT22;13991;51.174;4.438;2022-07-11T15:01:30;29.20;81.80
26081;DHT22;13991;51.174;4.438;2022-07-11T15:03:56;28.90;83.40
26081;DHT22;13991;51.174;4.438;2022-07-11T15:06:22;29.20;81.50
26081;DHT22;13991;51.174;4.438;2022-07-11T15:09:07;29.40;80.20
26081;DHT22;13991;51.174;4.438;2022-07-11T15:11:51;29.10;79.40
26081;DHT22;13991;51.174;4.438;2022-07-11T15:14:36;29.20;80.20
26081;DHT22;13991;51.174;4.438;2022-07-11T15:17:01;29.50;81.30
26081;DHT22;13991;51.174;4.438;2022-07-11T15:19:27;29.50;83.50
26081;DHT22;13991;51.174;4.438;2022-07-11T15:21:52;29.50;81.00
26081;DHT22;13991;51.174;4.438;2022-07-11T15:24:18;29.60;80.50
26081;DHT22;13991;51.174;4.438;2022-07-11T15:26:44;29.60;79.30
26081;DHT22;13991;51.174;4.438;2022-07-11T15:29:09;29.50;79.70
26081;DHT22;13991;51.174;4.438;2022-07-11T15:31:35;29.50;80.00
26081;DHT22;13991;51.174;4.438;2022-07-11T15:34:02;29.40;79.50
26081;DHT22;13991;51.174;4.438;2022-07-11T15:36:28;29.40;78.90
26081;DHT22;13991;51.174;4.438;2022-07-11T15:38:55;29.40;78.30
26081;DHT22;13991;51.174;4.438;2022-07-11T15:41:21;29.50;77.40
26081;DHT22;13991;51.174;4.438;2022-07-11T15:43:46;29.50;79.80
26081;DHT22;13991;51.174;4.438;2022-07-11T15:46:13;29.30;82.20
26081;DHT22;13991;51.174;4.438;2022-07-11T15:48:39;29.30;82.00
26081;DHT22;13991;51.174;4.438;2022-07-11T15:51:05;29.30;81.70
26081;DHT22;13991;51.174;4.438;2022-07-11T15:53:31;29.30;81.20
26081;DHT22;13991;51.174;4.438;2022-07-11T15:55:57;29.30;81.90
26081;DHT22;13991;51.174;4.438;2022-07-11T15:58:23;29.30;79.10
26081;DHT22;13991;51.174;4.438;2022-07-11T16:00:52;29.10;78.60
26081;DHT22;13991;51.174;4.438;2022-07-11T16:03:18;29.30;79.20
26081;DHT22;13991;51.174;4.438;2022-07-11T16:05:44;29.20;80.60